createdAt,value
2022-12-24T00:01:10.257Z,97827.56
2022-12-24T00:03:15.605Z,97828.59
2022-12-24T00:05:23.265Z,97827.53
2022-12-24T00:07:28.313Z,97828.09
2022-12-24T00:09:33.446Z,97821.00
2022-12-24T00:11:38.355Z,97832.84
2022-12-24T00:13:43.328Z,97833.63
2022-12-24T00:15:49.013Z,97837.13
2022-12-24T00:17:54.305Z,97840.50
2022-12-24T00:19:59.602Z,97843.91
2022-12-24T00:22:07.448Z,97854.09
2022-12-24T00:24:12.544Z,97845.78
2022-12-24T00:26:18.125Z,97858.47
2022-12-24T00:28:23.440Z,97847.41
2022-12-24T00:30:28.721Z,97856.53
2022-12-24T00:32:33.664Z,97865.53
2022-12-24T00:34:38.998Z,97862.16
2022-12-24T00:36:44.724Z,97853.59
2022-12-24T00:38:52.238Z,97851.44
2022-12-24T00:41:03.210Z,97859.78
2022-12-24T00:43:08.144Z,97860.03
2022-12-24T00:45:14.939Z,97859.91
2022-12-24T00:47:20.204Z,97873.72
2022-12-24T00:49:25.465Z,97871.84
2022-12-24T00:51:30.631Z,97876.75
2022-12-24T00:53:35.902Z,97875.00
2022-12-24T00:55:43.367Z,97882.03
2022-12-24T00:57:48.934Z,97879.53
2022-12-24T00:59:53.832Z,97883.56
2022-12-24T01:01:59.209Z,97880.16
2022-12-24T01:04:16.474Z,97883.13
2022-12-24T01:06:24.698Z,97872.50
2022-12-24T01:08:30.175Z,97880.69
2022-12-24T01:10:35.375Z,97891.16
2022-12-24T01:12:43.572Z,97903.31
2022-12-24T01:14:48.641Z,97905.28
2022-12-24T01:16:53.537Z,97906.94
2022-12-24T01:18:59.232Z,97906.25
2022-12-24T01:21:06.780Z,97909.84
2022-12-24T01:23:11.725Z,97923.31
2022-12-24T01:25:18.223Z,97926.38
2022-12-24T01:27:23.442Z,97931.28
2022-12-24T01:29:31.356Z,97939.25
2022-12-24T01:31:36.664Z,97944.13
2022-12-24T01:33:41.634Z,97945.91
2022-12-24T01:35:47.581Z,97952.69
2022-12-24T01:37:53.228Z,97947.88
2022-12-24T01:40:18.404Z,97946.13
2022-12-24T01:42:39.365Z,97949.94
2022-12-24T01:44:51.567Z,97959.44
2022-12-24T01:47:05.642Z,97959.91
2022-12-24T01:49:14.504Z,97963.31
2022-12-24T01:51:28.415Z,97971.72
2022-12-24T01:53:37.444Z,97967.91
2022-12-24T01:55:44.450Z,97962.69
2022-12-24T01:57:56.428Z,97968.38
2022-12-24T02:00:13.736Z,97970.06
2022-12-24T02:02:20.024Z,97976.75
2022-12-24T02:04:35.323Z,97974.22
2022-12-24T02:06:40.424Z,97979.47
2022-12-24T02:08:46.128Z,97981.94
2022-12-24T02:10:52.544Z,97984.88
2022-12-24T02:12:58.130Z,97989.16
2022-12-24T02:15:07.008Z,97996.44
2022-12-24T02:17:23.791Z,97992.25
2022-12-24T02:20:40.806Z,98004.47
2022-12-24T02:23:10.122Z,98003.03
2022-12-24T02:25:41.183Z,98016.59
2022-12-24T02:28:00.554Z,98017.75
2022-12-24T02:30:22.549Z,98018.06
2022-12-24T02:32:33.347Z,98024.81
2022-12-24T02:34:43.324Z,98032.16
2022-12-24T02:36:58.359Z,98032.28
2022-12-24T02:39:08.836Z,98033.16
2022-12-24T02:41:23.443Z,98038.50
2022-12-24T02:43:36.190Z,98038.25
2022-12-24T02:45:51.368Z,98028.31
2022-12-24T02:48:00.903Z,98021.88
2022-12-24T02:50:10.639Z,98015.00
2022-12-24T02:52:34.473Z,98018.38
2022-12-24T02:57:05.830Z,98025.06
2022-12-24T03:00:02.407Z,98023.09
2022-12-24T03:02:21.753Z,98032.78
2022-12-24T03:04:47.392Z,98029.56
2022-12-24T03:07:00.600Z,98036.59
2022-12-24T03:09:09.828Z,98045.66
2022-12-24T03:11:17.180Z,98045.75
2022-12-24T03:13:25.584Z,98052.41
2022-12-24T03:15:32.606Z,98053.75
2022-12-24T03:17:43.583Z,98062.69
2022-12-24T03:19:49.868Z,98056.44
2022-12-24T03:21:57.303Z,98052.94
2022-12-24T03:24:03.388Z,98044.84
2022-12-24T03:26:13.490Z,98047.81
2022-12-24T03:28:21.776Z,98051.19
2022-12-24T03:30:28.757Z,98057.22
2022-12-24T03:32:35.495Z,98063.25
2022-12-24T03:34:43.556Z,98071.75
2022-12-24T03:36:50.169Z,98082.44
2022-12-24T03:38:55.755Z,98085.19
2022-12-24T03:41:00.729Z,98082.28
2022-12-24T03:43:06.199Z,98072.44
2022-12-24T03:45:13.443Z,98086.53
2022-12-24T03:47:18.991Z,98088.97
2022-12-24T03:49:24.301Z,98092.09
2022-12-24T03:51:33.347Z,98089.66
2022-12-24T03:53:38.592Z,98091.84
2022-12-24T03:55:44.164Z,98082.75
2022-12-24T03:57:49.497Z,98089.91
2022-12-24T03:59:55.294Z,98098.34
2022-12-24T04:02:00.585Z,98094.00
2022-12-24T04:04:05.680Z,98101.13
2022-12-24T04:06:13.454Z,98109.63
2022-12-24T04:08:21.366Z,98116.38
2022-12-24T04:10:26.315Z,98113.13
2022-12-24T04:12:31.246Z,98112.38
2022-12-24T04:14:37.112Z,98118.50
2022-12-24T04:16:42.150Z,98118.31
2022-12-24T04:18:48.042Z,98123.38
2022-12-24T04:20:53.367Z,98129.28
2022-12-24T04:22:58.288Z,98128.38
2022-12-24T04:25:06.512Z,98131.19
2022-12-24T04:27:11.511Z,98136.16
2022-12-24T04:29:16.609Z,98146.91
2022-12-24T04:31:21.886Z,98141.97
2022-12-24T04:33:27.606Z,98140.25
2022-12-24T04:35:32.531Z,98136.88
2022-12-24T04:37:37.780Z,98139.56
2022-12-24T04:39:43.216Z,98139.56
2022-12-24T04:41:50.821Z,98147.25
2022-12-24T04:43:57.636Z,98130.38
2022-12-24T04:46:08.697Z,98129.66
2022-12-24T04:48:14.039Z,98139.16
2022-12-24T04:50:19.477Z,98137.16
2022-12-24T04:52:24.406Z,98149.09
2022-12-24T04:54:29.851Z,98142.44
2022-12-24T04:56:36.431Z,98143.50
2022-12-24T04:58:44.270Z,98151.00
2022-12-24T05:00:49.290Z,98149.19
2022-12-24T05:02:54.711Z,98145.72
2022-12-24T05:04:59.737Z,98150.13
2022-12-24T05:07:04.911Z,98140.53
2022-12-24T05:09:10.195Z,98136.88
2022-12-24T05:11:16.419Z,98136.69
2022-12-24T05:13:21.352Z,98143.44
2022-12-24T05:15:29.221Z,98148.63
2022-12-24T05:17:34.164Z,98151.22
2022-12-24T05:19:39.067Z,98162.19
2022-12-24T05:21:44.376Z,98156.38
2022-12-24T05:24:02.222Z,98149.06
2022-12-24T05:26:23.806Z,98151.69
2022-12-24T05:28:28.984Z,98165.91
2022-12-24T05:30:37.082Z,98163.16
2022-12-24T05:32:41.988Z,98166.53
2022-12-24T05:34:46.918Z,98166.72
2022-12-24T05:36:52.040Z,98180.00
2022-12-24T05:38:57.250Z,98178.41
2022-12-24T05:41:02.189Z,98180.88
2022-12-24T05:43:07.247Z,98180.88
2022-12-24T05:45:13.511Z,98172.75
2022-12-24T05:47:20.998Z,98169.16
2022-12-24T05:49:25.923Z,98168.13
2022-12-24T05:51:30.874Z,98175.84
2022-12-24T05:53:36.457Z,98176.03
2022-12-24T05:55:42.675Z,98170.38
2022-12-24T05:57:47.612Z,98180.50
2022-12-24T05:59:52.563Z,98176.22
2022-12-24T06:01:57.987Z,98190.72
2022-12-24T06:04:05.744Z,98187.97
2022-12-24T06:06:13.748Z,98187.28
2022-12-24T06:08:18.865Z,98200.81
2022-12-24T06:10:23.899Z,98198.38
2022-12-24T06:12:29.460Z,98195.16
2022-12-24T06:14:34.867Z,98193.78
2022-12-24T06:16:39.894Z,98201.41
2022-12-24T06:18:45.918Z,98199.75
2022-12-24T06:20:56.932Z,98202.38
2022-12-24T06:23:01.815Z,98196.19
2022-12-24T06:25:07.772Z,98199.53
2022-12-24T06:27:12.675Z,98200.25
2022-12-24T06:29:17.591Z,98203.72
2022-12-24T06:31:24.981Z,98207.13
2022-12-24T06:33:30.585Z,98206.44
2022-12-24T06:35:35.753Z,98210.75
2022-12-24T06:37:43.257Z,98217.59
2022-12-24T06:39:48.794Z,98216.84
2022-12-24T06:41:54.163Z,98226.91
2022-12-24T06:43:59.433Z,98224.25
2022-12-24T06:46:06.166Z,98230.84
2022-12-24T06:48:11.980Z,98226.72
2022-12-24T06:50:17.083Z,98238.47
2022-12-24T06:52:22.203Z,98239.06
2022-12-24T06:54:29.707Z,98249.09
2022-12-24T06:56:34.699Z,98254.84
2022-12-24T06:58:40.985Z,98252.47
2022-12-24T07:00:45.964Z,98255.06
2022-12-24T07:02:51.531Z,98267.81
2022-12-24T07:04:56.886Z,98259.09
2022-12-24T07:07:01.861Z,98267.41
2022-12-24T07:09:06.928Z,98270.75
2022-12-24T07:11:14.876Z,98269.13
2022-12-24T07:13:20.378Z,98273.44
2022-12-24T07:15:25.327Z,98273.59
2022-12-24T07:17:30.821Z,98271.78
2022-12-24T07:19:35.945Z,98270.91
2022-12-24T07:21:41.108Z,98280.78
2022-12-24T07:23:46.023Z,98269.25
2022-12-24T07:25:51.303Z,98275.13
2022-12-24T07:27:59.348Z,98268.47
2022-12-24T07:30:04.298Z,98278.59
2022-12-24T07:32:09.331Z,98282.66
2022-12-24T07:34:14.926Z,98280.78
2022-12-24T07:36:23.468Z,98279.19
2022-12-24T07:38:28.928Z,98291.94
2022-12-24T07:40:36.243Z,98296.06
2022-12-24T07:42:41.321Z,98298.41
2022-12-24T07:44:52.163Z,98304.28
2022-12-24T07:46:57.136Z,98300.22
2022-12-24T07:49:02.097Z,98301.31
2022-12-24T07:51:07.744Z,98306.41
2022-12-24T07:53:12.671Z,98302.34
2022-12-24T07:55:17.824Z,98299.81
2022-12-24T07:57:22.727Z,98306.50
2022-12-24T07:59:28.266Z,98304.91
2022-12-24T08:01:35.836Z,98308.31
2022-12-24T08:03:41.436Z,98314.19
2022-12-24T08:05:46.470Z,98313.22
2022-12-24T08:07:51.719Z,98318.94
2022-12-24T08:09:56.837Z,98320.44
2022-12-24T08:12:02.444Z,98320.44
2022-12-24T08:14:07.395Z,98321.31
2022-12-24T08:16:12.461Z,98326.25
2022-12-24T08:18:20.027Z,98337.63
2022-12-24T08:20:25.350Z,98342.44
2022-12-24T08:22:31.318Z,98345.72
2022-12-24T08:24:37.537Z,98355.63
2022-12-24T08:26:42.666Z,98356.31
2022-12-24T08:28:47.620Z,98361.25
2022-12-24T08:30:54.038Z,98348.72
2022-12-24T08:32:59.004Z,98349.34
2022-12-24T08:35:07.920Z,98354.38
2022-12-24T08:37:13.505Z,98361.03
2022-12-24T08:39:18.443Z,98369.41
2022-12-24T08:41:23.700Z,98377.03
2022-12-24T08:43:29.362Z,98384.47
2022-12-24T08:45:40.104Z,98388.78
2022-12-24T08:47:46.982Z,98388.88
2022-12-24T08:49:51.883Z,98386.38
2022-12-24T08:52:00.155Z,98383.84
2022-12-24T08:54:05.081Z,98384.50
2022-12-24T08:56:13.020Z,98393.63
2022-12-24T08:58:18.064Z,98391.03
2022-12-24T09:00:24.064Z,98400.16
2022-12-24T09:02:29.028Z,98400.00
2022-12-24T09:04:34.212Z,98411.69
2022-12-24T09:06:40.204Z,98420.09
2022-12-24T09:08:47.879Z,98412.44
2022-12-24T09:10:53.533Z,98415.69
2022-12-24T09:12:58.538Z,98414.66
2022-12-24T09:15:04.292Z,98426.50
2022-12-24T09:17:09.809Z,98421.50
2022-12-24T09:19:15.030Z,98421.34
2022-12-24T09:21:20.352Z,98412.94
2022-12-24T09:23:25.283Z,98417.09
2022-12-24T09:25:33.161Z,98426.97
2022-12-24T09:27:38.651Z,98425.13
2022-12-24T09:29:43.583Z,98435.81
2022-12-24T09:31:50.084Z,98440.94
2022-12-24T09:33:55.457Z,98441.84
2022-12-24T09:36:00.462Z,98446.22
2022-12-24T09:38:05.716Z,98442.03
2022-12-24T09:40:28.306Z,98444.56
2022-12-24T09:42:51.359Z,98445.34
2022-12-24T09:45:05.799Z,98452.88
2022-12-24T09:47:21.420Z,98453.53
2022-12-24T09:49:32.222Z,98445.00
2022-12-24T09:51:42.351Z,98454.31
2022-12-24T09:53:54.260Z,98448.22
2022-12-24T09:56:04.084Z,98450.66
2022-12-24T09:58:25.007Z,98462.34
2022-12-24T10:00:33.611Z,98467.31
2022-12-24T10:02:38.647Z,98459.72
2022-12-24T10:04:45.444Z,98454.06
2022-12-24T10:06:57.296Z,98453.94
2022-12-24T10:09:15.818Z,98455.34
2022-12-24T10:11:30.602Z,98457.00
2022-12-24T10:13:56.894Z,98455.06
2022-12-24T10:16:09.887Z,98460.03
2022-12-24T10:18:29.910Z,98463.34
2022-12-24T10:20:48.173Z,98471.56
2022-12-24T10:23:01.962Z,98463.03
2022-12-24T10:25:20.206Z,98465.47
2022-12-24T10:27:32.360Z,98467.00
2022-12-24T10:29:45.865Z,98474.41
2022-12-24T10:31:59.547Z,98477.78
2022-12-24T10:34:09.855Z,98483.84
2022-12-24T10:36:20.126Z,98472.97
2022-12-24T10:38:25.795Z,98481.09
2022-12-24T10:40:38.880Z,98487.59
2022-12-24T10:42:51.039Z,98482.31
2022-12-24T10:45:05.756Z,98483.94
2022-12-24T10:47:13.261Z,98485.75
2022-12-24T10:49:21.771Z,98487.53
2022-12-24T10:51:38.275Z,98479.13
2022-12-24T10:53:48.419Z,98482.50
2022-12-24T10:55:53.691Z,98488.97
2022-12-24T10:58:06.621Z,98492.38
2022-12-24T11:00:28.546Z,98495.66
2022-12-24T11:02:39.502Z,98512.25
2022-12-24T11:04:52.348Z,98502.94
2022-12-24T11:07:00.239Z,98510.63
2022-12-24T11:09:25.708Z,98508.75
2022-12-24T11:11:38.262Z,98507.91
2022-12-24T11:13:47.060Z,98507.00
2022-12-24T11:16:03.144Z,98501.91
2022-12-24T11:18:16.557Z,98501.91
2022-12-24T11:20:25.528Z,98495.69
2022-12-24T11:22:33.521Z,98498.06
2022-12-24T11:24:43.781Z,98500.41
2022-12-24T11:26:54.822Z,98501.19
2022-12-24T11:29:17.954Z,98498.69
2022-12-24T11:31:27.044Z,98487.63
2022-12-24T11:33:33.772Z,98494.41
2022-12-24T11:35:48.187Z,98486.72
2022-12-24T11:38:11.499Z,98480.09
2022-12-24T11:40:26.644Z,98487.72
2022-12-24T11:42:38.102Z,98491.13
2022-12-24T11:44:52.204Z,98498.97
2022-12-24T11:46:59.831Z,98488.22
2022-12-24T11:49:26.348Z,98479.00
2022-12-24T11:51:31.251Z,98484.66
2022-12-24T11:53:44.318Z,98477.72
2022-12-24T11:55:51.862Z,98484.34
2022-12-24T11:58:03.983Z,98484.91
2022-12-24T12:00:12.931Z,98485.81
2022-12-24T12:02:26.187Z,98486.09
2022-12-24T12:04:35.755Z,98493.53
2022-12-24T12:06:45.845Z,98497.59
2022-12-24T12:08:53.375Z,98493.06
2022-12-24T12:11:01.471Z,98483.56
2022-12-24T12:13:15.780Z,98492.78
2022-12-24T12:15:27.619Z,98489.75
2022-12-24T12:17:39.805Z,98499.13
2022-12-24T12:19:51.886Z,98485.81
2022-12-24T12:21:56.896Z,98485.81
2022-12-24T12:24:08.657Z,98482.13
2022-12-24T12:26:18.281Z,98491.84
2022-12-24T12:28:26.157Z,98502.50
2022-12-24T12:30:33.618Z,98498.91
2022-12-24T12:32:49.201Z,98496.16
2022-12-24T12:35:05.873Z,98498.06
2022-12-24T12:37:17.209Z,98493.34
2022-12-24T12:39:22.388Z,98506.09
2022-12-24T12:41:56.508Z,98517.50
2022-12-24T12:44:45.757Z,98511.66
2022-12-24T12:47:15.231Z,98515.03
2022-12-24T12:49:40.290Z,98509.81
2022-12-24T12:51:56.820Z,98521.53
2022-12-24T12:54:24.612Z,98519.09
2022-12-24T12:56:35.614Z,98511.94
2022-12-24T12:58:46.548Z,98512.34
2022-12-24T13:01:00.573Z,98516.00
2022-12-24T13:03:31.243Z,98512.31
2022-12-24T13:06:29.185Z,98512.34
2022-12-24T13:09:25.279Z,98505.66
2022-12-24T13:12:03.662Z,98516.00
2022-12-24T13:14:38.634Z,98519.91
2022-12-24T13:17:21.802Z,98516.50
2022-12-24T13:21:54.272Z,98519.19
2022-12-24T13:24:10.043Z,98526.28
2022-12-24T13:26:17.715Z,98534.56
2022-12-24T13:28:39.780Z,98536.34
2022-12-24T13:30:45.509Z,98537.53
2022-12-24T13:32:54.536Z,98544.09
2022-12-24T13:35:03.626Z,98547.06
2022-12-24T13:37:25.544Z,98548.81
2022-12-24T13:39:30.464Z,98548.53
2022-12-24T13:41:53.842Z,98549.03
2022-12-24T13:44:07.403Z,98550.50
2022-12-24T13:46:12.761Z,98550.13
2022-12-24T13:48:36.116Z,98563.69
2022-12-24T13:50:46.242Z,98561.88
2022-12-24T13:52:57.125Z,98558.81
2022-12-24T13:55:18.248Z,98566.03
2022-12-24T13:57:41.435Z,98563.31
2022-12-24T13:59:46.648Z,98565.34
2022-12-24T14:01:51.762Z,98567.34
2022-12-24T14:04:01.908Z,98565.06
2022-12-24T14:06:12.457Z,98568.72
2022-12-24T14:08:33.071Z,98571.47
2022-12-24T14:10:42.693Z,98573.28
2022-12-24T14:12:53.728Z,98571.53
2022-12-24T14:14:58.642Z,98578.97
2022-12-24T14:17:06.068Z,98580.50
2022-12-24T14:19:17.890Z,98579.38
2022-12-24T14:21:29.735Z,98578.50
2022-12-24T14:23:55.265Z,98581.88
2022-12-24T14:26:01.205Z,98569.41
2022-12-24T14:28:19.094Z,98575.19
2022-12-24T14:30:26.682Z,98575.19
2022-12-24T14:32:38.824Z,98571.03
2022-12-24T14:34:43.766Z,98578.72
2022-12-24T14:36:50.343Z,98583.75
2022-12-24T14:39:02.958Z,98584.50
2022-12-24T14:41:21.936Z,98580.34
2022-12-24T14:43:48.830Z,98569.47
2022-12-24T14:46:07.714Z,98581.19
2022-12-24T14:48:21.963Z,98586.22
2022-12-24T14:50:53.716Z,98583.81
2022-12-24T14:53:16.682Z,98585.78
2022-12-24T14:55:42.897Z,98585.00
2022-12-24T14:57:47.845Z,98583.41
2022-12-24T14:59:55.974Z,98584.34
2022-12-24T15:02:00.997Z,98590.19
2022-12-24T15:04:17.609Z,98598.69
2022-12-24T15:06:22.637Z,98599.47
2022-12-24T15:08:34.011Z,98601.97
2022-12-24T15:10:45.136Z,98598.50
2022-12-24T15:12:50.479Z,98595.28
2022-12-24T15:14:55.439Z,98596.25
2022-12-24T15:17:04.627Z,98595.22
2022-12-24T15:19:21.586Z,98617.06
2022-12-24T15:21:32.629Z,98610.56
2022-12-24T15:23:39.840Z,98606.59
2022-12-24T15:25:47.394Z,98610.72
2022-12-24T15:27:52.834Z,98620.91
2022-12-24T15:30:00.714Z,98619.50
2022-12-24T15:32:07.181Z,98628.19
2022-12-24T15:34:30.647Z,98626.78
2022-12-24T15:36:38.642Z,98634.50
2022-12-24T15:38:46.461Z,98628.66
2022-12-24T15:40:54.560Z,98632.00
2022-12-24T15:42:59.546Z,98633.75
2022-12-24T15:45:09.107Z,98635.34
2022-12-24T15:47:21.987Z,98642.63
2022-12-24T15:49:28.188Z,98640.13
2022-12-24T15:51:40.257Z,98642.41
2022-12-24T15:53:49.196Z,98653.22
2022-12-24T15:56:09.856Z,98658.31
2022-12-24T15:58:28.580Z,98665.03
2022-12-24T16:00:33.827Z,98660.00
2022-12-24T16:02:42.675Z,98660.97
2022-12-24T16:04:47.777Z,98664.50
2022-12-24T16:06:59.289Z,98657.94
2022-12-24T16:09:05.198Z,98654.41
2022-12-24T16:11:19.445Z,98654.50
2022-12-24T16:13:28.369Z,98667.88
2022-12-24T16:15:33.663Z,98673.03
2022-12-24T16:17:38.683Z,98679.88
2022-12-24T16:19:44.176Z,98683.38
2022-12-24T16:21:53.549Z,98682.59
2022-12-24T16:24:06.762Z,98699.31
2022-12-24T16:26:12.129Z,98689.41
2022-12-24T16:28:22.853Z,98692.91
2022-12-24T16:30:28.176Z,98681.22
2022-12-24T16:32:38.234Z,98678.72
2022-12-24T16:34:44.290Z,98672.91
2022-12-24T16:36:50.271Z,98672.84
2022-12-24T16:39:07.708Z,98671.94
2022-12-24T16:41:12.611Z,98677.94
2022-12-24T16:43:32.999Z,98682.88
2022-12-24T16:45:40.465Z,98688.09
2022-12-24T16:47:45.419Z,98684.94
2022-12-24T16:49:50.443Z,98690.16
2022-12-24T16:51:55.917Z,98692.03
2022-12-24T16:54:01.330Z,98688.03
2022-12-24T16:56:06.835Z,98686.63
2022-12-24T16:58:14.851Z,98687.63
2022-12-24T17:00:26.943Z,98693.69
2022-12-24T17:02:32.031Z,98688.81
2022-12-24T17:04:37.846Z,98685.56
2022-12-24T17:06:43.285Z,98693.31
2022-12-24T17:08:48.204Z,98685.06
2022-12-24T17:10:54.508Z,98696.84
2022-12-24T17:12:59.998Z,98704.53
2022-12-24T17:15:05.406Z,98700.50
2022-12-24T17:17:24.196Z,98693.91
2022-12-24T17:19:29.197Z,98691.59
2022-12-24T17:21:34.529Z,98705.97
2022-12-24T17:23:40.259Z,98700.19
2022-12-24T17:25:45.867Z,98706.94
2022-12-24T17:27:50.875Z,98709.63
2022-12-24T17:29:56.103Z,98707.38
2022-12-24T17:32:01.191Z,98718.25
2022-12-24T17:34:10.140Z,98712.44
2022-12-24T17:36:15.090Z,98718.28
2022-12-24T17:38:20.528Z,98719.94
2022-12-24T17:40:25.636Z,98720.59
2022-12-24T17:42:30.520Z,98719.84
2022-12-24T17:44:36.070Z,98719.91
2022-12-24T17:46:41.024Z,98719.91
2022-12-24T17:48:46.998Z,98718.22
2022-12-24T17:50:55.140Z,98719.88
2022-12-24T17:53:00.041Z,98719.13
2022-12-24T17:55:05.123Z,98720.84
2022-12-24T17:57:10.306Z,98718.41
2022-12-24T17:59:15.411Z,98710.19
2022-12-24T18:01:23.773Z,98716.88
2022-12-24T18:03:29.697Z,98723.69
2022-12-24T18:05:37.828Z,98717.88
2022-12-24T18:07:46.543Z,98716.97
2022-12-24T18:09:51.503Z,98726.19
2022-12-24T18:11:56.940Z,98725.41
2022-12-24T18:14:03.825Z,98719.56
2022-12-24T18:16:18.753Z,98713.56
2022-12-24T18:18:24.244Z,98711.91
2022-12-24T18:20:29.898Z,98712.69
2022-12-24T18:22:35.123Z,98718.47
2022-12-24T18:24:42.650Z,98715.19
2022-12-24T18:26:48.844Z,98711.91
2022-12-24T18:28:56.696Z,98718.75
2022-12-24T18:31:02.678Z,98730.53
2022-12-24T18:33:07.999Z,98726.34
2022-12-24T18:35:13.764Z,98725.41
2022-12-24T18:37:18.677Z,98728.91
2022-12-24T18:39:24.101Z,98735.56
2022-12-24T18:41:33.193Z,98731.63
2022-12-24T18:43:38.934Z,98730.81
2022-12-24T18:45:44.390Z,98740.03
2022-12-24T18:47:50.823Z,98747.53
2022-12-24T18:49:56.092Z,98749.34
2022-12-24T18:52:01.375Z,98758.22
2022-12-24T18:54:07.486Z,98760.72
2022-12-24T18:58:26.945Z,98760.47
2022-12-24T19:00:32.795Z,98760.31
2022-12-24T19:02:37.818Z,98759.25
2022-12-24T19:04:43.320Z,98753.06
2022-12-24T19:06:53.197Z,98758.75
2022-12-24T19:09:00.296Z,98770.28
2022-12-24T19:11:06.379Z,98766.97
2022-12-24T19:13:12.370Z,98762.84
2022-12-24T19:15:20.129Z,98761.19
2022-12-24T19:17:25.063Z,98763.75
2022-12-24T19:19:30.813Z,98756.34
2022-12-24T19:21:35.853Z,98753.88
2022-12-24T19:23:40.928Z,98743.13
2022-12-24T19:25:46.382Z,98748.25
2022-12-24T19:27:51.297Z,98766.78
2022-12-24T19:29:56.644Z,98762.69
2022-12-24T19:32:04.170Z,98762.63
2022-12-24T19:34:09.208Z,98769.34
2022-12-24T19:36:18.249Z,98771.94
2022-12-24T19:38:23.403Z,98768.72
2022-12-24T19:40:28.819Z,98760.31
2022-12-24T19:42:37.027Z,98767.06
2022-12-24T19:44:42.303Z,98777.06
2022-12-24T19:46:47.655Z,98775.44
2022-12-24T19:48:58.240Z,98775.44
2022-12-24T19:51:04.421Z,98771.31
2022-12-24T19:53:09.326Z,98782.13
2022-12-24T19:55:15.374Z,98793.00
2022-12-24T19:57:21.270Z,98788.69
2022-12-24T19:59:26.206Z,98785.38
2022-12-24T20:01:34.141Z,98790.44
2022-12-24T20:03:39.577Z,98782.03
2022-12-24T20:05:47.470Z,98788.50
2022-12-24T20:07:52.357Z,98788.50
2022-12-24T20:09:57.276Z,98789.25
2022-12-24T20:12:03.906Z,98793.31
2022-12-24T20:14:09.669Z,98797.41
2022-12-24T20:16:18.230Z,98793.13
2022-12-24T20:18:23.794Z,98792.13
2022-12-24T20:20:28.831Z,98802.84
2022-12-24T20:22:36.332Z,98801.13
2022-12-24T20:24:41.223Z,98800.34
2022-12-24T20:26:46.262Z,98801.06
2022-12-24T20:28:54.450Z,98801.06
2022-12-24T20:30:59.669Z,98797.72
2022-12-24T20:33:04.702Z,98796.81
2022-12-24T20:35:11.267Z,98794.31
2022-12-24T20:37:16.175Z,98799.34
2022-12-24T20:39:23.921Z,98804.31
2022-12-24T20:41:32.583Z,98815.19
2022-12-24T20:43:45.084Z,98809.34
2022-12-24T20:45:54.325Z,98808.53
2022-12-24T20:47:59.735Z,98813.56
2022-12-24T20:50:04.698Z,98806.91
2022-12-24T20:52:09.809Z,98802.66
2022-12-24T20:54:15.121Z,98802.59
2022-12-24T20:56:22.720Z,98800.72
2022-12-24T20:58:27.665Z,98793.81
2022-12-24T21:00:32.652Z,98800.50
2022-12-24T21:02:37.813Z,98806.97
2022-12-24T21:04:42.949Z,98823.69
2022-12-24T21:06:47.900Z,98820.44
2022-12-24T21:08:54.623Z,98810.41
2022-12-24T21:11:11.961Z,98808.56
2022-12-24T21:13:19.746Z,98816.88
2022-12-24T21:15:27.146Z,98817.78
2022-12-24T21:17:32.306Z,98807.00
2022-12-24T21:19:37.209Z,98792.09
2022-12-24T21:21:42.567Z,98800.53
2022-12-24T21:23:47.735Z,98797.22
2022-12-24T21:26:01.336Z,98812.28
2022-12-24T21:28:06.469Z,98810.53
2022-12-24T21:30:15.114Z,98815.56
2022-12-24T21:32:20.026Z,98813.97
2022-12-24T21:34:25.044Z,98802.34
2022-12-24T21:36:29.960Z,98799.00
2022-12-24T21:38:35.202Z,98800.59
2022-12-24T21:40:41.558Z,98810.63
2022-12-24T21:42:46.616Z,98807.34
2022-12-24T21:44:51.675Z,98802.31
2022-12-24T21:46:59.122Z,98802.34
2022-12-24T21:49:16.634Z,98812.44
2022-12-24T21:51:21.603Z,98817.50
2022-12-24T21:53:39.169Z,98813.41
2022-12-24T21:55:44.073Z,98806.69
2022-12-24T21:57:55.573Z,98807.69
2022-12-24T22:00:21.903Z,98802.78
2022-12-24T22:02:30.061Z,98809.59
2022-12-24T22:04:35.576Z,98808.09
2022-12-24T22:06:53.020Z,98804.78
2022-12-24T22:09:11.728Z,98814.72
2022-12-24T22:11:30.188Z,98826.63
2022-12-24T22:13:35.820Z,98829.19
2022-12-24T22:15:47.705Z,98830.91
2022-12-24T22:17:55.640Z,98826.78
2022-12-24T22:20:01.959Z,98827.66
2022-12-24T22:22:07.199Z,98836.06
2022-12-24T22:24:12.523Z,98836.94
2022-12-24T22:26:20.255Z,98830.41
2022-12-24T22:31:26.470Z,98818.78
2022-12-24T22:33:36.419Z,98818.88
2022-12-24T22:35:44.331Z,98814.63
2022-12-24T22:37:53.041Z,98820.44
2022-12-24T22:40:00.926Z,98830.44
2022-12-24T22:42:09.276Z,98838.88
2022-12-24T22:47:21.229Z,98837.06
2022-12-24T22:49:28.727Z,98841.97
2022-12-24T22:51:33.885Z,98841.16
2022-12-24T22:53:39.517Z,98834.47
2022-12-24T22:55:44.412Z,98832.81
2022-12-24T22:57:49.527Z,98843.75
2022-12-24T22:59:55.065Z,98849.72
2022-12-24T23:02:00.146Z,98848.03
2022-12-24T23:04:06.139Z,98842.22
2022-12-24T23:06:14.672Z,98838.84
2022-12-24T23:08:19.566Z,98842.09
2022-12-24T23:10:25.224Z,98837.94
2022-12-24T23:12:43.503Z,98838.78
2022-12-24T23:15:00.615Z,98831.31
2022-12-24T23:17:06.243Z,98821.25
2022-12-24T23:19:12.789Z,98819.53
2022-12-24T23:21:20.573Z,98816.97
2022-12-24T23:23:25.555Z,98814.41
2022-12-24T23:25:30.472Z,98821.13
2022-12-24T23:27:35.396Z,98822.06
2022-12-24T23:29:40.762Z,98827.94
2022-12-24T23:31:45.663Z,98821.28
2022-12-24T23:33:51.914Z,98817.13
2022-12-24T23:35:57.176Z,98815.34
2022-12-24T23:38:05.030Z,98815.34
2022-12-24T23:40:12.338Z,98805.44
2022-12-24T23:42:17.280Z,98815.44
2022-12-24T23:44:28.206Z,98816.19
2022-12-24T23:46:36.805Z,98815.31
2022-12-24T23:48:42.283Z,98807.69
2022-12-24T23:50:48.585Z,98808.47
2022-12-24T23:52:53.765Z,98803.41
2022-12-24T23:55:01.444Z,98800.13
2022-12-24T23:57:06.433Z,98796.81
2022-12-24T23:59:11.677Z,98790.25
